Home > Products > Valid Products > MTR

000
SAUS41 KOKX 302353
MTRNYC
METAR KNYC 302351Z AUTO 8SM BKN020 24/20 A2997 RMK AO2 SLP138
T02440200 10278 20239 53004 $





000
SAUS41 KOKX 302348
MTRNYC
SPECI KNYC 302346Z AUTO 21004KT 8SM BKN022 24/20 A2996 RMK AO2 $





000
SAUS41 KOKX 302255
MTRMTP
METAR KMTP 302254Z AUTO 23009G17KT 19/18 A2997 RMK AO1 SLP148
T01890183





000
SAUS41 KOKX 301955
MTRMTP
METAR KMTP 301954Z AUTO 23007KT 18/18 A2998 RMK AO1 SLP153 T01830183





000
SAUS41 KOKX 301855
MTRMTP
METAR KMTP 301854Z AUTO 22008KT 19/19 A2998 RMK AO1 SLP152 T01890189





000
SAUS41 KOKX 301755
MTRMTP
METAR KMTP 301754Z AUTO 21009G18KT 19/19 A2999 RMK AO1 SLP154 60037
T01940189 10200 20178 58011





000
SAUS41 KOKX 301652
MTRNYC
METAR KNYC 301651Z AUTO 00000KT 10SM FEW025 SCT031 26/20 A2999 RMK
AO2 SLP145 T02560200 $





000
SAUS41 KOKX 301455
MTRMTP
METAR KMTP 301454Z AUTO 22007G16KT 19/19 A3002 RMK AO1 SLP165 P0004
60037 T01890189 58002





000
SAUS41 KOKX 301427
MTRNYC
SPECI KNYC 301425Z AUTO 00000KT 6SM BR SCT010 BKN036 BKN070 22/19
A3003 RMK AO2 T02170194 $





000
SAUS41 KOKX 301355
MTRMTP
METAR KMTP 301354Z AUTO 21008KT 19/19 A3003 RMK AO1 SLP167 P0001
T01890189





000
SAUS41 KOKX 301252
MTRNYC
METAR KNYC 301251Z AUTO VRB03KT 4SM BR OVC008 21/19 A3004 RMK AO2
SLP163 T02060194 $





000
SAUS41 KOKX 301155
MTRMTP
METAR KMTP 301154Z AUTO 22005KT 18/18 A3003 RMK AO1 SLP167 P0001
60008 70008 T01830183 10183 20167 55002





000
SAUS41 KOKX 301136
MTRNYC
SPECI KNYC 301135Z AUTO 00000KT 3SM BR BKN007 OVC014 21/20 A3002 RMK
AO2 RAE1056 CIG 005V010 P0000 T02110200 $





000
SAUS41 KOKX 301133
MTRNYC
SPECI KNYC 301132Z AUTO 30003KT 2 1/2SM BR SCT007 OVC014 21/20 A3002
RMK AO2 RAE1056 P0000 T02110200 $





000
SAUS41 KOKX 301128
MTRNYC
SPECI KNYC 301127Z AUTO 29003KT 1 3/4SM BR BKN009 OVC016 21/20 A3002
RMK AO2 RAE1056 CIG 005V012 P0000 T02110200 $





000
SAUS41 KOKX 301127 COR
MTRNYC
SPECI KNYC 301124Z AUTO 30004KT 1 3/4SM BR SCT011 OVC016 21/20 A3001
RMK AO2 RAE1056 P0000 T02110200 $





000
SAUS41 KOKX 301126
MTRNYC
SPECI KNYC 301124Z AUTO 30004KT 1 3/4SM BR SCT011 OVC016 21/20 A3001
RMK AO2 RAE1056 P0000 T02110200 $





000
SAUS41 KOKX 300909
MTRNYC
SPECI KNYC 300907Z AUTO 00000KT 2 1/2SM RA BR FEW010 BKN042 OVC070
21/20 A3002 RMK AO2 P0006 T02110200 $





000
SAUS41 KOKX 300827
MTRNYC
SPECI KNYC 300824Z AUTO 00000KT 2SM RA BR SCT007 BKN012 OVC050 21/20
A3002 RMK AO2 P0009 T02110200 $





000
SAUS41 KOKX 300757
MTRNYC
SPECI KNYC 300756Z AUTO 28003KT 2 1/2SM RA BR FEW006 BKN014 OVC037
21/21 A3002 RMK AO2 P0002 T02110206 $





000
SAUS41 KOKX 300753
MTRNYC
METAR KNYC 300751Z AUTO 00000KT 3SM RA BR FEW008 OVC015 21/21 A3002
RMK AO2 SLP155 P0009 T02110206 $





000
SAUS41 KOKX 300655
MTRMTP
METAR KMTP 300654Z AUTO VRB03KT 18/18 A3005 RMK AO1 SLP176 T01780178





000
SAUS41 KOKX 300653
MTRNYC
METAR KNYC 300651Z AUTO 00000KT 2SM RA BR OVC005 21/21 A3004 RMK AO2
SLP162 P0040 T02110206 $





000
SAUS41 KOKX 300640
MTRNYC
SPECI KNYC 300638Z AUTO 00000KT 2 1/2SM -RA BR BKN006 BKN009 OVC033
21/21 A3004 RMK AO2 P0037 T02110206 $





000
SAUS41 KOKX 300610
MTRNYC
SPECI KNYC 300608Z AUTO 00000KT 1SM -RA BR BKN021 BKN032 OVC050
21/20 A3005 RMK AO2 P0035 T02110200 $





000
SAUS41 KOKX 300555
MTRMTP
METAR KMTP 300554Z AUTO 19003KT 18/18 A3008 RMK AO1 SLP185 T01780178
10178 20167 58016





000
SAUS41 KOKX 300536
MTRNYC
SPECI KNYC 300534Z AUTO 00000KT 3/4SM +RA BR BKN014 BKN040 OVC070
21/19 A3008 RMK AO2 RAB0453 PRESRR P0010 T02110194 $





000
SAUS41 KOKX 300055
MTRMTP
METAR KMTP 300054Z AUTO 15003KT 17/17 A3014 RMK AO1 SLP204 T01720172





000
SAUS41 KOKX 300053
MTRNYC
METAR KNYC 300051Z AUTO VRB03KT 10SM CLR 23/18 A3008 RMK AO2 SLP177
T02280178 $





000
SAUS41 KOKX 292355
MTRMTP
METAR KMTP 292354Z AUTO 00000KT 18/17 A3014 RMK AO1 SLP205 T01780172
10228 20178 55002





000
SAUS41 KOKX 292353
MTRNYC
METAR KNYC 292351Z AUTO 10SM CLR 23/18 A3009 RMK AO2 SLP178
T02330178 10306 20233 55005 $





000
SAUS41 KOKX 292255
MTRMTP
METAR KMTP 292254Z AUTO 00000KT 18/17 A3013 RMK AO1 SLP203 T01780172





000
SAUS41 KOKX 292152
MTRNYC
METAR KNYC 292151Z AUTO 17008G19KT 140V210 10SM CLR 24/18 A3009 RMK
AO2 SLP178 T02440178 $





000
SAUS41 KOKX 292053
MTRNYC
METAR KNYC 292051Z AUTO 16006KT 9SM CLR 25/17 A3010 RMK AO2 SLP183
T02500172 58012 $





000
SAUS41 KOKX 291855
MTRMTP
METAR KMTP 291854Z AUTO 19007KT 160V220 21/18 A3017 RMK AO1 SLP214
T02110178





000
SAUS41 KOKX 291755
MTRMTP
METAR KMTP 291754Z AUTO 17006KT 22/18 A3016 RMK AO1 SLP213 T02220178
10233 20183 58004





000
SAUS41 KOKX 291753
MTRNYC
METAR KNYC 291751Z AUTO 21007KT 170V250 8SM CLR 29/16 A3013 RMK AO2
SLP194 T02940161 10306 20233 56009 $





000
SAUS41 KOKX 291653
MTRNYC
METAR KNYC 291651Z AUTO VRB06KT 8SM CLR 30/15 A3014 RMK AO2 SLP196
T03000150 $





000
SAUS41 KOKX 291552
MTRNYC
METAR KNYC 291551Z AUTO 8SM CLR 29/15 A3015 RMK AO2 SLP200 T02890150
$





000
SAUS41 KOKX 291355
MTRMTP
METAR KMTP 291354Z AUTO VRB03KT 23/17 A3018 RMK AO1 SLP218 T02280167





000
SAUS41 KOKX 291252
MTRNYC
METAR KNYC 291251Z AUTO 00000KT 9SM CLR 25/14 A3017 RMK AO2 SLP205
T02500139 $





000
SAUS41 KOKX 291152
MTRNYC
METAR KNYC 291151Z AUTO VRB05KT 9SM CLR 23/14 A3017 RMK AO2 SLP207
T02330139 10244 20222 51007 $





000
SAUS41 KOKX 291052
MTRNYC
METAR KNYC 291051Z AUTO 25007G15KT 9SM CLR 23/13 A3017 RMK AO2
SLP206 T02280133 $





000
SAUS41 KOKX 290855
MTRMTP
METAR KMTP 290854Z AUTO 17003KT 17/14 A3014 RMK AO1 SLP206 T01720144
56004





000
SAUS41 KOKX 290752
MTRNYC
METAR KNYC 290751Z AUTO 25003KT 10SM CLR 23/13 A3015 RMK AO2 SLP199
T02330128 $





000
SAUS41 KOKX 290655
MTRMTP
METAR KMTP 290654Z AUTO 23006KT 18/14 A3014 RMK AO1 SLP207 T01830139





000
SAUS41 KOKX 290652
MTRNYC
METAR KNYC 290651Z AUTO VRB05KT 10SM CLR 24/13 A3016 RMK AO2 SLP202
T02390128 $





000
SAUS41 KOKX 290455
MTRMTP
METAR KMTP 290454Z AUTO 22009G17KT 18/12 A3015 RMK AO1 SLP211
T01830122 402330161





000
SAUS41 KOKX 290453
MTRNYC
METAR KNYC 290451Z AUTO VRB04KT 10SM CLR 25/14 A3015 RMK AO2 SLP201
T02500139 403330217 $





000
SAUS41 KOKX 290155
MTRMTP
METAR KMTP 290154Z AUTO 23008G15KT 19/10 A3015 RMK AO1 SLP210
T01940100





000
SAUS41 KOKX 290052
MTRNYC
METAR KNYC 290051Z AUTO 00000KT 8SM OVC120 27/18 A3012 RMK AO2
SLP190 T02720178 $





000
SAUS41 KOKX 282355
MTRMTP
METAR KMTP 282354Z AUTO 22010G20KT 21/13 A3013 RMK AO1 SLP202
T02060133 10233 20206 53003





000
SAUS41 KOKX 281855
MTRMTP
METAR KMTP 281854Z AUTO 22009G18KT 23/17 A3013 RMK AO1 SLP201
T02280167





000
SAUS41 KOKX 281853
MTRNYC
METAR KNYC 281851Z AUTO VRB06KT 6SM HZ CLR 32/19 A3010 RMK AO2
SLP184 T03220189 $





000
SAUS41 KOKX 281752
MTRNYC
METAR KNYC 281751Z AUTO 7SM CLR 32/19 A3012 RMK AO2 SLP189 T03220189
10328 20228 58010 $





000
SAUS41 KOKX 281552
MTRNYC
METAR KNYC 281551Z AUTO VRB03KT 7SM CLR 31/19 A3015 RMK AO2 SLP199
T03060189 $





000
SAUS41 KOKX 281455
MTRMTP
METAR KMTP 281454Z AUTO 19006KT 20/16 A3015 RMK AO1 SLP211 T02000156
51006





000
SAUS41 KOKX 281155
MTRMTP
METAR KMTP 281154Z AUTO 22009G16KT 19/15 A3014 RMK AO1 SLP204 70018
T01890150 10189 20178 51012





000
SAUS41 KOKX 281154
MTRNYC
METAR KNYC 281151Z AUTO 8SM CLR 23/15 A3014 RMK AO2 SLP197 T02280150
10239 20217 51010 $





000
SAUS41 KOKX 281055
MTRMTP
METAR KMTP 281054Z AUTO 22009G16KT 18/15 A3013 RMK AO1 SLP202
T01830150





000
SAUS41 KOKX 281052
MTRNYC
METAR KNYC 281051Z AUTO 25007G15KT 200V280 8SM CLR 22/14 A3014 RMK
AO2 SLP197 T02220144 $





000
SAUS41 KOKX 280852
MTRNYC
METAR KNYC 280851Z AUTO VRB04KT 9SM CLR 22/14 A3011 RMK AO2 SLP186
T02170144 53001 $





000
SAUS41 KOKX 280752
MTRNYC
METAR KNYC 280751Z AUTO VRB06KT 9SM CLR 22/15 A3011 RMK AO2 SLP185
T02220150 $





000
SAUS41 KOKX 280652
MTRNYC
METAR KNYC 280651Z AUTO VRB05KT 9SM CLR 23/16 A3011 RMK AO2 SLP185
T02280156 $





    US Dept of Commerce
    National Oceanic and Atmospheric Administration
    National Weather Service
    1325 East West Highway
    Silver Spring, MD 20910
    Page Author: NWS Internet Services Team
Disclaimer
Information Quality
Credits
Glossary
Privacy Policy
Freedom of Information Act (FOIA)
About Us
Career Opportunities